Time;durP1;ratioP1;P1;durP2;ratioP2;P2;SDS_P1;SDS_P2;PMS_P1;PMS_P2;Temp;Humidity;BMP_temperature;BMP_pressure;BME280_temperature;BME280_humidity;BME280_pressure;Samples;Min_cycle;Max_cycle;Signal;HPM_P1;HPM_P2
2021/12/31 00:02:01;;;;;;;55.55;24.77;;;;;;;-1.48;100.00;101246.71;1744458;82;21113;-66
2021/12/31 00:04:28;;;;;;;52.95;25.15;;;;;;;-1.55;100.00;101235.20;1744209;82;21042;-66
2021/12/31 00:06:55;;;;;;;59.10;26.42;;;;;;;-1.55;100.00;101233.95;1744379;82;21054;-66
2021/12/31 00:09:21;;;;;;;58.92;26.82;;;;;;;-1.49;100.00;101236.58;1744393;82;20979;-66
2021/12/31 00:11:48;;;;;;;65.08;29.57;;;;;;;-1.48;100.00;101240.40;1744427;82;21534;-67
2021/12/31 00:14:15;;;;;;;62.95;29.42;;;;;;;-1.48;100.00;101241.66;1744311;82;21075;-67
2021/12/31 00:16:42;;;;;;;65.08;28.80;;;;;;;-1.43;100.00;101241.31;1744421;81;21026;-67
2021/12/31 00:19:09;;;;;;;60.83;27.25;;;;;;;-1.46;100.00;101241.27;1744560;82;21011;-67
2021/12/31 00:21:37;;;;;;;65.87;28.05;;;;;;;-1.52;100.00;101245.34;1744105;80;21039;-67
2021/12/31 00:24:04;;;;;;;63.38;27.35;;;;;;;-1.49;100.00;101239.94;1744532;82;21033;-67
2021/12/31 00:26:31;;;;;;;61.60;27.65;;;;;;;-1.53;100.00;101236.92;1744176;82;21023;-67
2021/12/31 00:29:00;;;;;;;57.13;27.95;;;;;;;-1.58;100.00;101238.54;1744260;82;21557;-66
2021/12/31 00:31:26;;;;;;;60.60;28.25;;;;;;;-1.65;100.00;101233.77;1744330;82;21015;-66
2021/12/31 00:33:53;;;;;;;62.78;27.77;;;;;;;-1.63;100.00;101232.12;1744303;82;21517;-67
2021/12/31 00:36:22;;;;;;;63.20;28.45;;;;;;;-1.57;100.00;101235.17;1744112;81;21035;-66
2021/12/31 00:38:48;;;;;;;63.73;27.10;;;;;;;-1.58;100.00;101233.87;1744341;82;21093;-66
2021/12/31 00:41:15;;;;;;;58.10;26.52;;;;;;;-1.61;100.00;101234.69;1744499;81;21019;-66
2021/12/31 00:43:42;;;;;;;63.83;27.27;;;;;;;-1.63;100.00;101236.33;1743448;82;21506;-66
2021/12/31 00:46:08;;;;;;;56.23;26.02;;;;;;;-1.57;100.00;101228.86;1744293;82;21534;-66
2021/12/31 00:48:35;;;;;;;62.98;28.98;;;;;;;-1.76;100.00;101236.53;1744346;82;21011;-66
2021/12/31 00:51:03;;;;;;;73.35;30.43;;;;;;;-1.76;100.00;101234.02;1743939;82;21027;-66
2021/12/31 00:53:30;;;;;;;64.00;29.48;;;;;;;-1.82;100.00;101241.05;1744370;81;21070;-67
2021/12/31 00:55:57;;;;;;;70.17;29.30;;;;;;;-1.74;100.00;101239.94;1744223;82;21035;-66
2021/12/31 00:58:24;;;;;;;74.00;30.65;;;;;;;-1.72;100.00;101239.97;1744488;81;21471;-66
2021/12/31 01:00:50;;;;;;;74.30;30.88;;;;;;;-1.62;100.00;101241.41;1744461;82;21014;-66
2021/12/31 01:03:17;;;;;;;74.92;30.80;;;;;;;-1.68;100.00;101236.67;1744588;81;21006;-66
2021/12/31 01:05:44;;;;;;;67.47;28.80;;;;;;;-1.76;100.00;101235.66;1744478;82;21577;-66
2021/12/31 01:08:10;;;;;;;66.55;29.32;;;;;;;-1.64;100.00;101234.23;1744512;82;21041;-65
2021/12/31 01:10:37;;;;;;;66.22;30.95;;;;;;;-1.62;100.00;101241.83;1744372;82;21070;-66
2021/12/31 01:13:10;;;;;;;63.08;29.30;;;;;;;-1.58;100.00;101242.33;1744120;82;21062;-66
2021/12/31 01:15:43;;;;;;;65.83;30.00;;;;;;;-1.58;100.00;101243.98;1743743;82;21035;-66
2021/12/31 01:20:39;;;;;;;56.23;25.82;;;;;;;-1.65;100.00;101243.87;1744167;82;21070;-66
2021/12/31 01:23:08;;;;;;;50.70;23.87;;;;;;;-1.83;100.00;101240.59;1744476;81;21118;-66
2021/12/31 01:25:36;;;;;;;51.90;23.62;;;;;;;-1.71;100.00;101242.50;1744466;82;21018;-66
2021/12/31 01:28:05;;;;;;;52.20;24.47;;;;;;;-1.66;100.00;101233.77;1744503;82;21503;-66
2021/12/31 01:30:32;;;;;;;51.30;24.30;;;;;;;-1.58;100.00;101232.62;1744354;82;21531;-66
2021/12/31 01:33:00;;;;;;;51.70;25.25;;;;;;;-1.59;100.00;101227.14;1744285;82;21015;-67
2021/12/31 01:35:27;;;;;;;55.08;25.32;;;;;;;-1.58;100.00;101229.70;1744451;81;21015;-66
2021/12/31 01:37:54;;;;;;;59.27;27.02;;;;;;;-1.67;100.00;101225.74;1744410;82;21007;-66
2021/12/31 01:40:21;;;;;;;55.98;24.77;;;;;;;-1.66;100.00;101224.52;1744465;82;21053;-66
2021/12/31 01:42:48;;;;;;;48.92;21.97;;;;;;;-1.64;100.00;101225.81;1744167;81;21046;-66
2021/12/31 01:45:19;;;;;;;50.73;23.83;;;;;;;-1.82;100.00;101230.11;1744365;82;21026;-66
2021/12/31 01:50:24;;;;;;;56.08;25.55;;;;;;;-1.74;100.00;101218.91;1744254;82;21051;-66
2021/12/31 01:52:52;;;;;;;53.33;24.57;;;;;;;-1.73;100.00;101211.75;1766130;79;21041;-67
2021/12/31 01:55:21;;;;;;;48.83;23.47;;;;;;;-1.69;100.00;101206.77;1744617;81;21062;-67
2021/12/31 01:57:49;;;;;;;48.98;22.20;;;;;;;-1.73;100.00;101205.44;1744330;81;21022;-66
2021/12/31 02:00:16;;;;;;;46.70;21.68;;;;;;;-1.64;100.00;101196.36;1744434;82;21035;-66
2021/12/31 02:02:45;;;;;;;58.30;24.37;;;;;;;-1.58;100.00;101185.52;1744271;82;21028;-66
2021/12/31 02:05:13;;;;;;;64.62;27.75;;;;;;;-1.55;100.00;101172.94;1744356;82;21080;-66
2021/12/31 02:07:42;;;;;;;55.88;24.92;;;;;;;-1.46;100.00;101178.14;1744040;82;21023;-66
2021/12/31 02:10:10;;;;;;;50.95;23.57;;;;;;;-1.48;100.00;101182.32;1740705;81;21514;-66
2021/12/31 02:12:46;;;;;;;57.83;23.07;;;;;;;-1.52;100.00;101189.41;1739836;82;21101;-66
2021/12/31 02:15:17;;;;;;;57.65;25.10;;;;;;;-1.56;100.00;101181.34;1744170;82;21054;-66
2021/12/31 02:17:47;;;;;;;78.10;30.75;;;;;;;-1.52;100.00;101176.78;1744178;81;21019;-66
2021/12/31 02:20:19;;;;;;;77.50;28.83;;;;;;;-1.55;100.00;101172.94;1744384;82;21470;-66
2021/12/31 02:22:54;;;;;;;76.37;29.00;;;;;;;-1.59;100.00;101166.13;1744224;82;21042;-66
2021/12/31 02:25:19;;;;;;;71.77;28.10;;;;;;;-1.65;100.00;101165.61;1744090;81;21099;-66
2021/12/31 02:27:47;;;;;;;70.87;25.40;;;;;;;-1.80;100.00;101174.20;1744088;82;21062;-66
2021/12/31 02:30:15;;;;;;;57.35;23.25;;;;;;;-1.75;100.00;101170.49;1744263;82;21007;-66
2021/12/31 02:32:42;;;;;;;46.90;22.15;;;;;;;-1.81;100.00;101161.14;1744393;82;21058;-66
2021/12/31 02:35:11;;;;;;;52.58;22.87;;;;;;;-1.66;100.00;101155.52;1744325;82;21110;-66
2021/12/31 02:37:39;;;;;;;63.83;25.50;;;;;;;-1.62;100.00;101155.58;1744593;81;21514;-66
2021/12/31 02:40:11;;;;;;;59.05;23.22;;;;;;;-1.51;100.00;101152.37;1744536;82;21018;-66
2021/12/31 02:42:39;;;;;;;64.62;23.18;;;;;;;-1.63;100.00;101149.23;1744500;81;21042;-67
2021/12/31 02:45:09;;;;;;;48.28;20.50;;;;;;;-1.67;100.00;101148.33;1744461;81;20995;-66
2021/12/31 02:47:43;;;;;;;49.67;20.30;;;;;;;-1.55;100.00;101148.95;1744498;82;21065;-67
2021/12/31 02:50:11;;;;;;;43.50;19.98;;;;;;;-1.52;100.00;101146.88;1743907;82;21110;-67
2021/12/31 02:52:40;;;;;;;38.67;19.20;;;;;;;-1.69;100.00;101145.36;1744354;82;21078;-67
2021/12/31 02:55:09;;;;;;;40.58;18.87;;;;;;;-1.54;100.00;101148.14;1744432;81;21531;-67
2021/12/31 02:57:39;;;;;;;39.00;18.62;;;;;;;-1.52;100.00;101143.96;1744553;82;20978;-66
2021/12/31 03:00:08;;;;;;;36.60;18.60;;;;;;;-1.44;100.00;101140.27;1744503;81;21034;-67
2021/12/31 03:02:39;;;;;;;34.83;17.23;;;;;;;-1.51;100.00;101139.33;1744507;82;21045;-66
2021/12/31 03:05:08;;;;;;;35.80;17.92;;;;;;;-1.50;100.00;101135.13;1743756;82;21011;-66
2021/12/31 03:07:40;;;;;;;34.23;17.23;;;;;;;-1.50;100.00;101136.39;1744629;81;21435;-67
2021/12/31 03:10:10;;;;;;;34.33;17.10;;;;;;;-1.57;100.00;101132.92;1724041;82;21003;-66
2021/12/31 03:12:40;;;;;;;34.85;17.40;;;;;;;-1.55;100.00;101128.75;1744268;81;21089;-67
2021/12/31 03:15:10;;;;;;;30.32;15.65;;;;;;;-1.51;100.00;101134.70;1744492;82;21030;-66
2021/12/31 03:17:40;;;;;;;33.33;17.32;;;;;;;-1.67;100.00;101132.34;1744509;81;21089;-66
2021/12/31 03:20:16;;;;;;;35.33;17.10;;;;;;;-1.64;100.00;101132.41;1744670;82;21510;-67
2021/12/31 03:22:41;;;;;;;35.33;17.30;;;;;;;-1.59;100.00;101127.00;1743712;81;21518;-67
2021/12/31 03:25:10;;;;;;;35.63;17.60;;;;;;;-1.54;100.00;101127.94;1744465;82;21062;-67
2021/12/31 03:27:38;;;;;;;35.88;17.15;;;;;;;-1.44;100.00;101132.30;1744482;82;20991;-67
2021/12/31 03:30:06;;;;;;;35.15;17.62;;;;;;;-1.46;100.00;101133.08;1744453;82;21498;-67
2021/12/31 03:32:34;;;;;;;34.23;17.62;;;;;;;-1.43;100.00;101128.94;1744226;82;21011;-67
2021/12/31 03:35:01;;;;;;;36.58;17.85;;;;;;;-1.50;100.00;101129.69;1744439;81;21054;-67
2021/12/31 03:37:28;;;;;;;32.00;17.90;;;;;;;-1.55;100.00;101130.02;1744267;81;21078;-67
2021/12/31 03:39:55;;;;;;;35.40;18.17;;;;;;;-1.45;100.00;101123.44;1744359;82;21022;-66
2021/12/31 03:42:22;;;;;;;37.08;18.27;;;;;;;-1.38;100.00;101126.47;1744538;82;21538;-66
2021/12/31 03:44:49;;;;;;;40.98;17.95;;;;;;;-1.35;100.00;101123.16;1744613;81;21071;-66
2021/12/31 03:47:16;;;;;;;45.67;20.50;;;;;;;-1.46;100.00;101125.51;1744242;82;21034;-66
2021/12/31 03:49:42;;;;;;;36.15;17.48;;;;;;;-1.57;100.00;101119.46;1744384;81;21070;-66
2021/12/31 03:52:09;;;;;;;30.97;16.60;;;;;;;-1.50;100.00;101123.77;1744498;82;20984;-66
2021/12/31 03:54:37;;;;;;;31.30;16.00;;;;;;;-1.44;100.00;101123.47;1744432;82;21487;-66
2021/12/31 03:57:05;;;;;;;30.55;15.28;;;;;;;-1.44;100.00;101122.20;1744566;82;21026;-66
2021/12/31 03:59:33;;;;;;;31.82;16.75;;;;;;;-1.61;100.00;101127.39;1744251;82;21055;-66
2021/12/31 04:02:00;;;;;;;30.70;15.40;;;;;;;-1.63;100.00;101125.26;1744497;82;21479;-66
2021/12/31 04:04:26;;;;;;;33.28;16.70;;;;;;;-1.68;100.00;101132.77;1744455;82;21065;-66
2021/12/31 04:06:54;;;;;;;35.50;17.00;;;;;;;-1.53;100.00;101143.93;1744561;82;21073;-66
2021/12/31 04:09:21;;;;;;;30.00;15.38;;;;;;;-1.55;100.00;101138.01;1744522;82;21011;-66
2021/12/31 04:11:48;;;;;;;33.70;16.12;;;;;;;-1.69;100.00;101128.95;1744301;82;21054;-66
2021/12/31 04:14:14;;;;;;;34.13;16.75;;;;;;;-1.63;100.00;101127.36;1744145;82;21089;-66
2021/12/31 04:16:43;;;;;;;30.37;15.45;;;;;;;-1.55;100.00;101121.17;1744192;81;21027;-66
2021/12/31 04:19:11;;;;;;;33.45;16.67;;;;;;;-1.46;100.00;101121.33;1744088;82;21498;-66
2021/12/31 04:21:38;;;;;;;33.02;16.62;;;;;;;-1.48;100.00;101125.51;1744067;81;21129;-66
2021/12/31 04:26:35;;;;;;;31.07;16.62;;;;;;;-1.32;100.00;101108.88;1744089;81;21026;-66
2021/12/31 04:29:03;;;;;;;35.98;17.70;;;;;;;-1.32;100.00;101108.88;1744103;82;21030;-66
2021/12/31 04:31:30;;;;;;;34.15;17.55;;;;;;;-1.27;100.00;101111.07;1744414;81;20967;-66
2021/12/31 04:34:04;;;;;;;33.98;17.60;;;;;;;-1.41;100.00;101104.97;1744245;81;21091;-66
2021/12/31 04:36:27;;;;;;;36.33;18.40;;;;;;;-1.32;100.00;101097.94;1744375;81;21010;-66
2021/12/31 04:38:54;;;;;;;38.38;19.07;;;;;;;-1.34;100.00;101095.80;1723388;82;20999;-66
2021/12/31 04:41:22;;;;;;;38.95;19.65;;;;;;;-1.31;100.00;101089.55;1745168;81;21526;-66
2021/12/31 04:43:49;;;;;;;39.45;20.40;;;;;;;-1.26;100.00;101089.18;1743980;81;21101;-66
2021/12/31 04:46:16;;;;;;;44.20;22.40;;;;;;;-1.28;100.00;101089.58;1744567;82;20991;-66
2021/12/31 04:48:43;;;;;;;44.27;22.95;;;;;;;-1.24;100.00;101096.36;1723598;82;21054;-66
2021/12/31 04:51:10;;;;;;;43.20;22.65;;;;;;;-1.28;100.00;101108.52;1744243;81;21039;-66
2021/12/31 04:53:36;;;;;;;49.08;24.35;;;;;;;-1.26;100.00;101110.26;1744451;82;21507;-66
2021/12/31 04:56:04;;;;;;;51.48;24.82;;;;;;;-1.28;100.00;101109.78;1744175;82;21058;-66
2021/12/31 04:58:32;;;;;;;49.67;23.60;;;;;;;-1.28;100.00;101113.18;1744483;82;21007;-66
2021/12/31 05:01:00;;;;;;;41.00;19.37;;;;;;;-1.43;100.00;101125.56;1744219;82;21026;-66
2021/12/31 05:03:27;;;;;;;35.00;18.45;;;;;;;-1.41;100.00;101129.80;1744469;82;21042;-66
2021/12/31 05:05:53;;;;;;;42.62;19.95;;;;;;;-1.53;100.00;101133.41;1744422;82;21022;-66
2021/12/31 05:08:20;;;;;;;36.20;16.85;;;;;;;-1.46;100.00;101127.64;1744339;82;21022;-66
2021/12/31 05:10:47;;;;;;;32.25;15.83;;;;;;;-1.52;100.00;101131.34;1744216;82;21007;-66
2021/12/31 05:13:19;;;;;;;33.65;15.72;;;;;;;-1.53;100.00;101140.14;1744258;82;21610;-66
2021/12/31 05:15:48;;;;;;;35.05;15.40;;;;;;;-1.50;100.00;101141.05;1744356;82;21042;-66
2021/12/31 05:18:15;;;;;;;35.05;16.93;;;;;;;-1.53;100.00;101143.51;1744635;82;21514;-66
2021/12/31 05:20:43;;;;;;;33.88;15.20;;;;;;;-1.53;100.00;101142.25;1744418;81;21015;-66
2021/12/31 05:23:10;;;;;;;35.70;16.07;;;;;;;-1.66;100.00;101143.73;1744388;82;21495;-66
2021/12/31 05:25:37;;;;;;;35.68;15.78;;;;;;;-1.65;100.00;101142.05;1744453;82;21011;-66
2021/12/31 05:28:04;;;;;;;38.13;15.88;;;;;;;-1.70;100.00;101128.11;1744526;81;21482;-66
2021/12/31 05:30:31;;;;;;;34.83;15.78;;;;;;;-1.60;100.00;101129.11;1744305;82;21074;-66
2021/12/31 05:32:59;;;;;;;36.03;16.12;;;;;;;-1.74;100.00;101127.63;1744101;81;21019;-65
2021/12/31 05:35:25;;;;;;;38.25;16.95;;;;;;;-1.86;100.00;101126.16;1748057;80;21567;-66
2021/12/31 05:37:52;;;;;;;38.60;16.95;;;;;;;-1.75;100.00;101124.64;1758941;80;20965;-66
2021/12/31 05:40:20;;;;;;;44.10;18.12;;;;;;;-1.72;100.00;101121.34;1723305;82;21014;-66
2021/12/31 05:42:47;;;;;;;41.28;18.07;;;;;;;-1.68;100.00;101116.36;1760350;80;21019;-66
2021/12/31 05:45:15;;;;;;;38.90;18.07;;;;;;;-1.67;100.00;101119.30;1759676;80;21000;-66
2021/12/31 05:47:42;;;;;;;43.92;18.92;;;;;;;-1.79;100.00;101120.38;1760360;80;20996;-66
2021/12/31 05:50:19;;;;;;;40.17;17.32;;;;;;;-1.63;100.00;101128.63;1762558;80;21023;-65
2021/12/31 05:52:38;;;;;;;42.90;17.67;;;;;;;-1.71;100.00;101128.07;1721963;82;21006;-65
2021/12/31 05:55:07;;;;;;;40.43;17.55;;;;;;;-1.69;100.00;101128.95;1757918;81;21019;-66
2021/12/31 05:57:33;;;;;;;40.03;18.12;;;;;;;-1.70;100.00;101138.63;1756264;79;20983;-66
2021/12/31 06:00:00;;;;;;;37.67;16.67;;;;;;;-1.74;100.00;101135.61;1761729;80;21492;-66
2021/12/31 06:02:27;;;;;;;37.73;17.80;;;;;;;-1.95;100.00;101130.61;1747476;81;21053;-66
2021/12/31 06:04:55;;;;;;;39.83;18.23;;;;;;;-1.74;100.00;101133.09;1759607;80;21047;-66
2021/12/31 06:07:22;;;;;;;36.68;17.10;;;;;;;-1.79;100.00;101125.84;1759903;80;21472;-66
2021/12/31 06:09:49;;;;;;;35.05;16.23;;;;;;;-1.66;100.00;101127.33;1760077;81;21037;-66
2021/12/31 06:12:16;;;;;;;34.80;16.65;;;;;;;-1.75;100.00;101122.54;1762396;80;21032;-66
2021/12/31 06:14:43;;;;;;;32.00;15.72;;;;;;;-1.56;100.00;101113.57;1783797;79;21043;-66
2021/12/31 06:17:09;;;;;;;31.37;16.07;;;;;;;-1.41;100.00;101112.55;1748581;79;21032;-66
2021/12/31 06:19:39;;;;;;;29.87;14.95;;;;;;;-1.30;100.00;101101.33;1731103;82;21075;-66
2021/12/31 06:22:07;;;;;;;29.60;14.33;;;;;;;-1.27;100.00;101092.13;1733714;80;21039;-66
2021/12/31 06:24:33;;;;;;;29.57;14.55;;;;;;;-1.20;100.00;101099.37;1733782;82;21490;-66
2021/12/31 06:27:01;;;;;;;26.12;13.53;;;;;;;-1.23;100.00;101101.44;1733672;82;21035;-66
2021/12/31 06:29:28;;;;;;;29.05;13.95;;;;;;;-1.22;100.00;101108.21;1733669;82;21090;-66
2021/12/31 06:31:57;;;;;;;24.15;13.00;;;;;;;-1.23;100.00;101125.86;1733008;82;21007;-66
2021/12/31 06:34:23;;;;;;;24.23;13.10;;;;;;;-1.34;100.00;101140.84;1732627;83;21058;-66
2021/12/31 06:36:50;;;;;;;24.80;13.30;;;;;;;-1.37;100.00;101147.12;1733660;82;21071;-66
2021/12/31 06:39:17;;;;;;;25.40;13.15;;;;;;;-1.44;100.00;101142.41;1733881;83;21026;-66
2021/12/31 06:41:43;;;;;;;28.38;14.58;;;;;;;-1.64;100.00;101142.51;1734121;82;21058;-66
2021/12/31 06:44:11;;;;;;;24.63;13.05;;;;;;;-1.44;100.00;101136.09;1713161;83;21006;-66
2021/12/31 06:46:38;;;;;;;23.77;13.10;;;;;;;-1.34;100.00;101134.53;1731602;82;21066;-66
2021/12/31 06:49:04;;;;;;;25.52;13.75;;;;;;;-1.56;100.00;101138.43;1734337;81;21030;-66
2021/12/31 06:51:33;;;;;;;23.02;13.13;;;;;;;-1.41;100.00;101129.80;1733563;83;21081;-66
2021/12/31 06:53:59;;;;;;;25.20;13.68;;;;;;;-1.25;100.00;101127.09;1733843;82;21017;-66
2021/12/31 06:56:28;;;;;;;27.82;13.30;;;;;;;-1.23;100.00;101132.18;1733877;82;21525;-66
2021/12/31 06:58:54;;;;;;;28.27;14.63;;;;;;;-1.26;100.00;101138.44;1722215;82;21025;-66
2021/12/31 07:01:24;;;;;;;27.30;13.88;;;;;;;-1.21;100.00;101125.47;1744483;81;21006;-66
2021/12/31 07:03:51;;;;;;;30.77;15.15;;;;;;;-1.19;100.00;101119.19;1744305;82;21537;-67
2021/12/31 07:06:18;;;;;;;32.98;16.57;;;;;;;-0.96;100.00;101119.06;1745796;82;21026;-66
2021/12/31 07:08:45;;;;;;;27.50;15.55;;;;;;;-0.86;100.00;101116.24;1744321;82;21036;-66
2021/12/31 07:11:13;;;;;;;27.17;15.90;;;;;;;-1.10;100.00;101126.88;1738601;82;21001;-66
2021/12/31 07:13:40;;;;;;;32.13;16.45;;;;;;;-1.26;100.00;101126.67;1744305;82;21107;-66
2021/12/31 07:16:06;;;;;;;30.68;15.95;;;;;;;-1.08;100.00;101127.74;1744475;81;21002;-66
2021/12/31 07:18:33;;;;;;;33.65;15.70;;;;;;;-0.90;100.00;101130.94;1744369;82;21034;-66
2021/12/31 07:21:00;;;;;;;35.30;16.12;;;;;;;-1.15;100.00;101130.61;1744375;82;21037;-66
2021/12/31 07:23:26;;;;;;;32.03;16.40;;;;;;;-1.10;100.00;101128.98;1744646;82;21072;-66
2021/12/31 07:25:53;;;;;;;35.70;16.55;;;;;;;-0.89;100.00;101136.02;1744601;82;20993;-66
2021/12/31 07:28:20;;;;;;;37.58;16.73;;;;;;;-1.04;100.00;101134.11;1750573;81;21464;-66
2021/12/31 07:30:48;;;;;;;44.63;18.12;;;;;;;-1.23;100.00;101148.59;1729425;82;21010;-67
2021/12/31 07:33:19;;;;;;;39.80;18.82;;;;;;;-1.13;100.00;101151.69;1685063;84;21029;-67
2021/12/31 07:35:46;;;;;;;50.73;18.85;;;;;;;-1.18;100.00;101147.39;1759287;81;20985;-67
2021/12/31 07:38:31;;;;;;;53.35;21.77;;;;;;;-1.15;100.00;101130.61;1758880;81;21532;-67
2021/12/31 07:40:51;;;;;;;52.88;20.35;;;;;;;-1.03;100.00;101126.98;1755561;81;21005;-67
2021/12/31 07:43:20;;;;;;;50.85;21.23;;;;;;;-1.09;100.00;101125.64;1760118;81;20975;-67
2021/12/31 07:45:51;;;;;;;55.90;22.42;;;;;;;-0.94;100.00;101130.45;1737541;81;20969;-67
2021/12/31 07:48:21;;;;;;;53.05;20.02;;;;;;;-0.90;100.00;101135.98;1759074;80;21097;-67
2021/12/31 07:50:49;;;;;;;55.43;22.42;;;;;;;-0.93;100.00;101139.33;1750634;81;21017;-66
2021/12/31 07:53:16;;;;;;;62.85;24.47;;;;;;;-0.99;100.00;101135.85;1708754;84;21006;-66
2021/12/31 07:55:43;;;;;;;63.80;24.23;;;;;;;-0.88;100.00;101136.86;1685753;84;20965;-67
2021/12/31 07:58:11;;;;;;;62.55;23.50;;;;;;;-0.90;100.00;101133.04;1682656;83;21032;-66
2021/12/31 08:00:38;;;;;;;65.15;24.32;;;;;;;-0.98;100.00;101136.30;1678701;84;21024;-66
2021/12/31 08:03:05;;;;;;;55.38;22.95;;;;;;;-0.93;100.00;101134.28;1657313;85;21582;-66
2021/12/31 08:05:33;;;;;;;56.80;21.37;;;;;;;-1.11;100.00;101131.51;1693006;84;21008;-67
2021/12/31 08:08:04;;;;;;;61.70;23.90;;;;;;;-1.13;100.00;101126.84;1681996;84;21035;-66
2021/12/31 08:10:28;;;;;;;60.08;23.50;;;;;;;-0.95;100.00;101126.22;1680313;84;21382;-67
2021/12/31 08:12:55;;;;;;;62.23;24.27;;;;;;;-0.77;100.00;101106.65;1748405;81;20983;-67
2021/12/31 08:15:22;;;;;;;59.03;24.10;;;;;;;-0.64;100.00;101109.77;1743949;82;21074;-66
2021/12/31 08:17:48;;;;;;;53.17;21.55;;;;;;;-0.54;100.00;101108.20;1744516;82;21510;-67
2021/12/31 08:20:16;;;;;;;51.35;22.75;;;;;;;-0.69;100.00;101113.52;1744534;81;21514;-67
2021/12/31 08:22:42;;;;;;;53.90;21.75;;;;;;;-0.57;100.00;101108.16;1744398;82;21549;-67
2021/12/31 08:25:10;;;;;;;59.50;22.30;;;;;;;-0.58;100.00;101107.31;1744472;81;21510;-67
2021/12/31 08:27:37;;;;;;;49.23;19.82;;;;;;;-0.51;100.00;101103.16;1744120;82;21026;-66
2021/12/31 08:30:07;;;;;;;51.05;20.50;;;;;;;-0.53;100.00;101104.40;1755401;79;21486;-66
2021/12/31 08:32:36;;;;;;;50.75;21.35;;;;;;;-0.53;100.00;101098.50;1748878;80;21180;-67
2021/12/31 08:35:05;;;;;;;48.90;18.60;;;;;;;-0.42;100.00;101094.42;1744320;82;21082;-66
2021/12/31 08:37:32;;;;;;;46.90;19.73;;;;;;;-0.46;100.00;101092.27;1744371;82;21077;-67
2021/12/31 08:39:59;;;;;;;45.28;19.48;;;;;;;-0.40;100.00;101088.96;1744435;80;21018;-66
2021/12/31 08:42:27;;;;;;;46.02;18.73;;;;;;;-0.34;100.00;101089.02;1744484;82;21030;-66
2021/12/31 08:44:55;;;;;;;42.73;19.00;;;;;;;-0.22;100.00;101081.97;1757270;81;21264;-66
2021/12/31 08:47:22;;;;;;;50.28;19.90;;;;;;;0.07;100.00;101077.16;1744487;81;21546;-66
2021/12/31 08:49:50;;;;;;;38.67;17.75;;;;;;;0.09;100.00;101082.23;1749998;81;21578;-66
2021/12/31 08:52:17;;;;;;;41.30;19.55;;;;;;;-0.08;100.00;101074.48;1736606;82;21032;-66
2021/12/31 08:54:44;;;;;;;47.58;20.10;;;;;;;0.13;100.00;101074.67;1775022;80;20988;-66
2021/12/31 08:57:11;;;;;;;51.68;20.92;;;;;;;0.05;100.00;101067.86;1774873;80;21028;-67
2021/12/31 08:59:38;;;;;;;35.05;16.95;;;;;;;0.09;100.00;101065.36;1752180;81;21094;-66
2021/12/31 09:02:06;;;;;;;39.65;19.95;;;;;;;-0.06;100.00;101060.16;1769861;80;20986;-67
2021/12/31 09:04:33;;;;;;;37.63;18.73;;;;;;;0.13;100.00;101053.16;1763558;80;20996;-67
2021/12/31 09:07:00;;;;;;;39.25;19.35;;;;;;;0.35;100.00;101044.03;1775110;81;21012;-66
2021/12/31 09:09:28;;;;;;;36.53;17.30;;;;;;;0.37;100.00;101042.35;1774979;81;21039;-65
2021/12/31 09:11:56;;;;;;;32.30;15.50;;;;;;;0.37;100.00;101041.09;1760592;80;21073;-66
2021/12/31 09:14:24;;;;;;;41.13;17.67;;;;;;;0.24;100.00;101044.79;1708587;84;21112;-65
2021/12/31 09:16:52;;;;;;;38.58;17.48;;;;;;;0.32;100.00;101043.16;1730169;82;21089;-65
2021/12/31 09:19:19;;;;;;;32.85;16.75;;;;;;;0.47;100.00;101041.16;1734002;81;21017;-66
2021/12/31 09:21:46;;;;;;;30.75;15.32;;;;;;;0.18;100.00;101036.33;1733979;83;21528;-66
2021/12/31 09:24:13;;;;;;;37.85;18.75;;;;;;;0.29;100.00;101027.53;1710955;81;21099;-66
2021/12/31 09:26:40;;;;;;;41.45;19.05;;;;;;;0.61;100.00;101029.41;1751038;81;20964;-66
2021/12/31 09:29:07;;;;;;;37.63;18.75;;;;;;;0.59;100.00;101033.20;1759780;81;21391;-66
2021/12/31 09:31:33;;;;;;;31.48;16.00;;;;;;;0.83;100.00;101026.96;1754336;79;21103;-66
2021/12/31 09:34:00;;;;;;;33.30;16.77;;;;;;;0.52;100.00;101032.72;1760404;81;21485;-66
2021/12/31 09:36:30;;;;;;;37.40;17.92;;;;;;;0.66;100.00;101023.09;1750825;80;21009;-66
2021/12/31 09:38:57;;;;;;;33.33;16.10;;;;;;;0.81;100.00;101026.95;1708497;84;21517;-67
2021/12/31 09:41:24;;;;;;;34.98;16.60;;;;;;;0.81;100.00;101021.88;1744367;81;21068;-66
2021/12/31 09:43:51;;;;;;;35.17;17.55;;;;;;;1.04;100.00;101024.95;1708989;83;21034;-66
2021/12/31 09:46:19;;;;;;;35.60;17.35;;;;;;;1.09;100.00;101020.72;1744014;82;20998;-67
2021/12/31 09:48:46;;;;;;;32.15;15.48;;;;;;;1.18;100.00;101022.03;1746594;81;21096;-66
2021/12/31 09:51:14;;;;;;;35.95;17.05;;;;;;;1.21;100.00;101020.76;1757183;81;21020;-67
2021/12/31 09:53:43;;;;;;;35.75;17.15;;;;;;;1.22;100.00;101022.47;1744087;82;21078;-67
2021/12/31 09:56:10;;;;;;;37.58;18.32;;;;;;;1.32;100.00;101011.92;1762453;80;21456;-67
2021/12/31 09:58:39;;;;;;;38.13;17.62;;;;;;;1.17;100.00;101023.70;1774679;81;21043;-67
2021/12/31 10:01:08;;;;;;;32.78;15.85;;;;;;;1.32;100.00;101017.00;1768494;79;20966;-68
2021/12/31 10:03:38;;;;;;;35.38;17.25;;;;;;;0.96;100.00;101024.48;1774678;81;21560;-67
2021/12/31 10:06:13;;;;;;;29.15;15.03;;;;;;;0.79;100.00;101022.30;1773765;81;21554;-67
2021/12/31 10:08:45;;;;;;;34.10;16.90;;;;;;;0.79;100.00;101022.30;1771912;81;20973;-67
2021/12/31 10:11:22;;;;;;;29.92;14.58;;;;;;;0.93;100.00;101016.02;1774744;81;21028;-67
2021/12/31 10:13:59;;;;;;;35.23;17.12;;;;;;;0.24;100.00;101020.30;1774846;81;21020;-67
2021/12/31 10:16:34;;;;;;;34.95;17.75;;;;;;;0.38;100.00;101013.64;1774838;80;21031;-67
2021/12/31 10:19:18;;;;;;;33.13;16.65;;;;;;;0.16;100.00;101006.36;1756486;81;21002;-67
2021/12/31 10:21:51;;;;;;;32.90;15.43;;;;;;;0.32;100.00;101003.91;1744311;82;21092;-66
2021/12/31 10:24:34;;;;;;;36.98;16.80;;;;;;;0.15;100.00;101000.84;1744425;81;21022;-67
2021/12/31 10:27:13;;;;;;;28.57;15.38;;;;;;;0.48;100.00;100992.17;1744562;82;21049;-67
2021/12/31 10:29:56;;;;;;;28.60;15.30;;;;;;;0.44;100.00;100986.67;1743989;82;21076;-67
2021/12/31 10:32:28;;;;;;;34.67;17.20;;;;;;;0.48;100.00;100993.44;1744528;82;21026;-66
2021/12/31 10:35:16;;;;;;;31.27;15.40;;;;;;;0.70;100.00;100992.70;1744279;82;21057;-67
2021/12/31 10:37:49;;;;;;;33.75;14.28;;;;;;;0.75;100.00;100987.25;1743978;82;21081;-67
2021/12/31 10:40:44;;;;;;;25.02;14.00;;;;;;;0.72;100.00;100982.15;1712790;82;20965;-67
2021/12/31 10:43:16;;;;;;;;;;;;;;;0.53;100.00;100982.93;1762743;80;21536;-67
2021/12/31 10:46:09;;;;;;;30.90;15.18;;;;;;;0.71;100.00;100988.47;1756514;81;20111;-67
2021/12/31 10:48:54;;;;;;;30.20;13.80;;;;;;;0.79;100.00;100985.55;1749831;81;21125;-67
2021/12/31 10:51:47;;;;;;;34.80;16.57;;;;;;;0.49;100.00;100985.02;1708568;84;21045;-67
2021/12/31 10:54:48;;;;;;;31.07;15.30;;;;;;;0.62;100.00;100982.95;1688861;84;20981;-68
2021/12/31 10:57:07;;;;;;;33.83;16.52;;;;;;;0.61;100.00;100976.21;1712454;82;21600;-67
2021/12/31 10:59:37;;;;;;;30.35;15.85;;;;;;;0.51;100.00;100973.21;1760178;80;21036;-68
2021/12/31 11:02:06;;;;;;;39.73;17.20;;;;;;;0.32;100.00;100973.09;1759817;80;21476;-67
2021/12/31 11:04:34;;;;;;;33.20;17.07;;;;;;;0.55;100.00;100962.25;1761294;81;21090;-67
2021/12/31 11:07:02;;;;;;;34.53;17.82;;;;;;;0.52;100.00;100967.29;1757931;81;21039;-67
2021/12/31 11:09:32;;;;;;;32.50;16.45;;;;;;;0.50;100.00;100965.17;1763675;80;20980;-67
2021/12/31 11:12:00;;;;;;;33.13;16.85;;;;;;;0.52;100.00;100959.27;1759421;81;20982;-67
2021/12/31 11:14:27;;;;;;;30.17;15.35;;;;;;;0.56;100.00;100958.44;1771432;80;21028;-67
2021/12/31 11:16:55;;;;;;;33.48;16.05;;;;;;;0.34;100.00;100960.44;1764054;79;21016;-67
2021/12/31 11:19:24;;;;;;;36.40;16.55;;;;;;;0.36;100.00;100957.07;1743924;82;21036;-67